Time;durP1;ratioP1;P1;durP2;ratioP2;P2;SDS_P1;SDS_P2;PMS_P1;PMS_P2;Temp;Humidity;BMP_temperature;BMP_pressure;BME280_temperature;BME280_humidity;BME280_pressure;Samples;Min_cycle;Max_cycle;Signal;HPM_P1;HPM_P2
2024/02/11 00:01:08;;;;;;;15.15;10.57;;;10.10;90.90;;;;;;4988304;28;20042;-63
2024/02/11 00:03:34;;;;;;;15.73;10.15;;;10.10;90.90;;;;;;4986216;28;20498;-62
2024/02/11 00:06:01;;;;;;;13.30;10.18;;;10.10;90.80;;;;;;4987169;28;20046;-63
2024/02/11 00:08:27;;;;;;;15.05;10.25;;;10.10;90.80;;;;;;4986332;28;20125;-63
2024/02/11 00:10:53;;;;;;;14.15;9.50;;;10.10;90.70;;;;;;4987832;28;20341;-62
2024/02/11 00:13:19;;;;;;;13.57;10.00;;;10.10;91.10;;;;;;4988299;28;20022;-63
2024/02/11 00:15:45;;;;;;;15.00;10.50;;;10.20;90.80;;;;;;4989652;28;20093;-63
2024/02/11 00:18:11;;;;;;;14.23;10.43;;;10.10;90.80;;;;;;4985872;28;20110;-64
2024/02/11 00:20:40;;;;;;;15.18;10.10;;;10.20;90.80;;;;;;4986694;28;20133;-62
2024/02/11 00:23:05;;;;;;;15.63;10.30;;;10.20;90.70;;;;;;4985184;28;20042;-63
2024/02/11 00:25:31;;;;;;;14.23;10.38;;;10.20;90.70;;;;;;4988094;28;20041;-64
2024/02/11 00:27:59;;;;;;;15.18;10.70;;;10.20;90.60;;;;;;4987772;28;20062;-63
2024/02/11 00:30:25;;;;;;;13.73;9.98;;;10.20;90.60;;;;;;4979895;28;20505;-63
2024/02/11 00:32:56;;;;;;;16.10;9.90;;;10.20;90.60;;;;;;4978389;28;20592;-64
2024/02/11 00:35:23;;;;;;;15.18;9.77;;;10.20;90.60;;;;;;4977230;28;20039;-62
2024/02/11 00:37:48;;;;;;;14.18;10.45;;;10.20;90.60;;;;;;4978838;28;20489;-63
2024/02/11 00:40:14;;;;;;;15.45;10.32;;;10.20;90.60;;;;;;4979986;28;20161;-63
2024/02/11 00:42:40;;;;;;;15.10;10.02;;;10.30;90.60;;;;;;4980739;28;20190;-64
2024/02/11 00:45:06;;;;;;;14.32;10.25;;;10.20;90.70;;;;;;4981449;28;20066;-63
2024/02/11 00:47:32;;;;;;;17.08;10.73;;;10.20;90.70;;;;;;4982363;28;20035;-63
2024/02/11 00:49:58;;;;;;;15.27;10.30;;;10.20;90.80;;;;;;4982701;28;20658;-61
2024/02/11 00:52:23;;;;;;;15.80;10.65;;;10.20;90.80;;;;;;4979627;28;20027;-63
2024/02/11 00:54:50;;;;;;;15.07;10.35;;;10.30;90.90;;;;;;4981687;28;20023;-63
2024/02/11 00:57:16;;;;;;;16.13;10.77;;;10.30;90.90;;;;;;4978606;28;20034;-64
2024/02/11 00:59:42;;;;;;;16.50;10.63;;;10.30;91.00;;;;;;4982442;28;20088;-63
2024/02/11 01:02:09;;;;;;;14.73;10.63;;;10.30;91.00;;;;;;4978078;28;20030;-63
2024/02/11 01:04:38;;;;;;;18.40;11.10;;;10.30;90.90;;;;;;4979500;28;20031;-64
2024/02/11 01:07:05;;;;;;;16.10;11.73;;;10.30;90.90;;;;;;4987282;28;20030;-63
2024/02/11 01:09:32;;;;;;;17.02;11.35;;;10.40;91.00;;;;;;4991747;28;20042;-63
2024/02/11 01:11:57;;;;;;;16.88;11.88;;;10.40;90.90;;;;;;4992707;28;20426;-62
2024/02/11 01:14:24;;;;;;;16.15;11.13;;;10.40;90.90;;;;;;4993191;28;20031;-63
2024/02/11 01:16:49;;;;;;;13.20;10.57;;;10.40;90.90;;;;;;4991957;28;20039;-63
2024/02/11 01:19:15;;;;;;;16.58;10.57;;;10.40;91.00;;;;;;4992848;28;20077;-63
2024/02/11 01:21:41;;;;;;;14.30;10.27;;;10.40;91.00;;;;;;4992914;28;20173;-63
2024/02/11 01:24:07;;;;;;;17.00;11.27;;;10.50;91.00;;;;;;4996587;28;20031;-63
2024/02/11 01:26:36;;;;;;;15.35;11.27;;;10.50;91.00;;;;;;4992811;28;20502;-63
2024/02/11 01:29:03;;;;;;;15.23;11.13;;;10.50;91.00;;;;;;4992317;28;20078;-64
2024/02/11 01:31:29;;;;;;;13.93;10.48;;;10.50;91.00;;;;;;4992912;28;20026;-63
2024/02/11 01:33:54;;;;;;;14.48;10.90;;;10.50;91.00;;;;;;4992715;28;20081;-63
2024/02/11 01:36:20;;;;;;;15.98;11.65;;;10.50;91.00;;;;;;4989998;28;20038;-63
2024/02/11 01:38:45;;;;;;;14.07;10.98;;;10.50;91.00;;;;;;4984706;28;20037;-64
2024/02/11 01:41:11;;;;;;;13.55;10.55;;;10.60;91.00;;;;;;4981420;28;20578;-61
2024/02/11 01:43:37;;;;;;;15.35;11.07;;;10.60;91.00;;;;;;4982241;28;20038;-64
2024/02/11 01:46:04;;;;;;;18.25;10.77;;;10.50;91.10;;;;;;4981171;28;20038;-63
2024/02/11 01:48:30;;;;;;;15.13;10.77;;;10.60;91.10;;;;;;4981335;28;20572;-63
2024/02/11 01:50:57;;;;;;;15.70;11.50;;;10.60;91.20;;;;;;4986206;28;20042;-63
2024/02/11 01:53:24;;;;;;;13.93;10.70;;;10.60;91.20;;;;;;4984577;28;20038;-64
2024/02/11 01:55:50;;;;;;;17.42;11.32;;;10.60;91.10;;;;;;4980754;28;20426;-63
2024/02/11 01:58:17;;;;;;;14.80;11.32;;;10.60;91.10;;;;;;4988014;28;20033;-64
2024/02/11 02:00:43;;;;;;;17.00;11.43;;;10.60;91.10;;;;;;4984023;28;20037;-63
2024/02/11 02:03:10;;;;;;;17.20;11.48;;;10.60;91.10;;;;;;4983267;28;20254;-63
2024/02/11 02:05:37;;;;;;;17.08;12.35;;;10.60;91.10;;;;;;4985344;28;20114;-63
2024/02/11 02:08:04;;;;;;;18.45;13.75;;;10.60;91.20;;;;;;4983647;28;20033;-63
2024/02/11 02:10:30;;;;;;;19.05;13.38;;;10.60;91.30;;;;;;4982861;28;20477;-63
2024/02/11 02:12:56;;;;;;;18.83;14.05;;;10.60;91.30;;;;;;4984330;28;20440;-64
2024/02/11 02:15:25;;;;;;;20.50;14.45;;;10.60;91.40;;;;;;4985221;28;20048;-64
2024/02/11 02:17:51;;;;;;;18.77;13.82;;;10.60;91.40;;;;;;4984534;28;21277;-64
2024/02/11 02:20:17;;;;;;;20.15;14.20;;;10.60;91.80;;;;;;4986144;28;20129;-64
2024/02/11 02:22:44;;;;;;;19.95;14.30;;;10.60;91.50;;;;;;4986160;28;20038;-64
2024/02/11 02:25:10;;;;;;;18.25;14.10;;;10.60;91.50;;;;;;4985314;28;20567;-64
2024/02/11 02:27:37;;;;;;;19.88;14.48;;;10.60;91.50;;;;;;4984625;28;20042;-64
2024/02/11 02:30:04;;;;;;;20.10;14.35;;;10.70;91.50;;;;;;4985223;28;20038;-64
2024/02/11 02:32:29;;;;;;;22.35;14.93;;;10.70;91.50;;;;;;4982417;28;20029;-64
2024/02/11 02:34:55;;;;;;;20.92;14.55;;;10.70;91.50;;;;;;4986507;28;20038;-64
2024/02/11 02:37:20;;;;;;;20.73;15.13;;;10.70;91.50;;;;;;4985488;28;20041;-64
2024/02/11 02:39:46;;;;;;;20.95;15.07;;;10.70;91.60;;;;;;4985225;28;20125;-64
2024/02/11 02:42:12;;;;;;;22.17;14.82;;;10.70;91.60;;;;;;4988563;28;20038;-64
2024/02/11 02:44:37;;;;;;;23.60;15.52;;;10.70;91.60;;;;;;4987662;28;20402;-64
2024/02/11 02:47:03;;;;;;;23.00;16.02;;;10.70;91.60;;;;;;4981008;28;20045;-64
2024/02/11 02:49:29;;;;;;;23.00;16.35;;;10.70;91.60;;;;;;4993391;28;20098;-64
2024/02/11 02:51:57;;;;;;;21.35;15.05;;;10.70;91.60;;;;;;4980838;28;20027;-64
2024/02/11 02:54:23;;;;;;;17.52;12.57;;;10.70;91.70;;;;;;4986731;28;20506;-64
2024/02/11 02:56:49;;;;;;;13.38;10.55;;;10.70;91.70;;;;;;4985784;28;20023;-65
2024/02/11 02:59:16;;;;;;;9.63;7.53;;;10.70;91.60;;;;;;4982642;28;20042;-64
2024/02/11 03:01:43;;;;;;;4.80;4.30;;;10.70;91.50;;;;;;4984212;28;20035;-63
2024/02/11 03:04:10;;;;;;;3.28;2.97;;;10.60;91.30;;;;;;4983811;28;20035;-64
2024/02/11 03:06:36;;;;;;;2.60;2.40;;;10.60;91.20;;;;;;4984251;28;20066;-64
2024/02/11 03:09:07;;;;;;;1.90;1.80;;;10.60;91.10;;;;;;4982581;28;20030;-64
2024/02/11 03:11:33;;;;;;;2.00;1.80;;;10.50;91.00;;;;;;4984500;28;20031;-62
2024/02/11 03:14:00;;;;;;;1.80;1.70;;;10.40;91.00;;;;;;4982734;28;20145;-64
2024/02/11 03:16:27;;;;;;;1.30;1.20;;;10.30;91.00;;;;;;4983554;28;20070;-62
2024/02/11 03:18:52;;;;;;;1.05;0.68;;;10.30;91.00;;;;;;4983671;28;20028;-63
2024/02/11 03:21:19;;;;;;;0.30;0.30;;;10.30;90.80;;;;;;4988255;28;20397;-63
2024/02/11 03:23:45;;;;;;;0.22;0.22;;;10.20;90.60;;;;;;4982832;28;20042;-62
2024/02/11 03:26:11;;;;;;;1.65;0.20;;;10.00;90.40;;;;;;4978383;28;20038;-63
2024/02/11 03:28:40;;;;;;;0.10;0.10;;;10.00;90.40;;;;;;4980322;28;20103;-62
2024/02/11 03:31:07;;;;;;;0.98;0.30;;;9.80;90.30;;;;;;4983701;28;20045;-63
2024/02/11 03:33:33;;;;;;;0.20;0.20;;;9.70;90.40;;;;;;4983315;28;20493;-63
2024/02/11 03:35:59;;;;;;;0.00;0.00;;;9.60;90.40;;;;;;4981581;28;20099;-63
2024/02/11 03:38:24;;;;;;;0.08;0.05;;;9.50;90.40;;;;;;4985264;28;20054;-61
2024/02/11 03:40:53;;;;;;;0.45;0.20;;;9.40;90.30;;;;;;4986411;28;20061;-62
2024/02/11 03:43:20;;;;;;;0.10;0.10;;;9.30;90.30;;;;;;4983965;28;20068;-63
2024/02/11 03:45:49;;;;;;;0.50;0.10;;;9.20;90.30;;;;;;4984713;28;20049;-63
2024/02/11 03:48:15;;;;;;;0.10;0.10;;;9.10;90.30;;;;;;4986906;28;20077;-63
2024/02/11 03:50:41;;;;;;;0.35;0.17;;;9.00;90.30;;;;;;4983636;28;20169;-61
2024/02/11 03:53:07;;;;;;;0.10;0.10;;;8.90;90.40;;;;;;4982833;28;20041;-65
2024/02/11 03:55:33;;;;;;;0.10;0.10;;;8.90;90.40;;;;;;4985510;28;20529;-63
2024/02/11 03:58:02;;;;;;;0.32;0.20;;;8.80;90.40;;;;;;4983064;28;20069;-63
2024/02/11 04:00:30;;;;;;;0.20;0.20;;;8.70;90.40;;;;;;4977179;28;20109;-62
2024/02/11 04:02:58;;;;;;;0.30;0.30;;;8.70;90.40;;;;;;4982226;28;20552;-62
2024/02/11 04:05:32;;;;;;;0.50;0.50;;;8.50;90.30;;;;;;4984376;28;20421;-64
2024/02/11 04:07:57;;;;;;;1.27;0.40;;;8.40;90.30;;;;;;4980962;28;20377;-64
2024/02/11 04:10:28;;;;;;;0.60;0.60;;;8.40;90.40;;;;;;4986681;28;20034;-65
2024/02/11 04:12:54;;;;;;;0.30;0.30;;;8.30;90.40;;;;;;4986957;28;20034;-65
2024/02/11 04:15:22;;;;;;;0.82;0.57;;;8.20;90.40;;;;;;4984751;28;20390;-65
2024/02/11 04:17:49;;;;;;;0.52;0.52;;;8.10;90.40;;;;;;4983891;28;20069;-65
2024/02/11 04:20:23;;;;;;;0.60;0.60;;;8.10;90.40;;;;;;4982579;28;20046;-63
2024/02/11 04:22:51;;;;;;;0.60;0.60;;;8.00;90.40;;;;;;4979906;28;20065;-65
2024/02/11 04:25:20;;;;;;;0.68;0.68;;;8.00;90.50;;;;;;4982608;28;20046;-65
2024/02/11 04:27:46;;;;;;;0.60;0.60;;;7.90;90.50;;;;;;4978702;28;20268;-64
2024/02/11 04:30:15;;;;;;;1.38;0.60;;;7.80;90.50;;;;;;4983610;28;20045;-66
2024/02/11 04:32:43;;;;;;;0.70;0.70;;;7.80;90.60;;;;;;4979826;28;20085;-65
2024/02/11 04:35:13;;;;;;;0.65;0.65;;;7.80;90.60;;;;;;4984415;28;20034;-65
2024/02/11 04:37:46;;;;;;;0.63;0.60;;;7.70;90.60;;;;;;4982960;28;20054;-66
2024/02/11 04:40:12;;;;;;;0.70;0.70;;;7.60;90.60;;;;;;4980051;28;20058;-65
2024/02/11 04:42:43;;;;;;;0.77;0.77;;;7.60;90.60;;;;;;4982439;28;20038;-64
2024/02/11 04:45:09;;;;;;;0.95;0.80;;;7.50;90.50;;;;;;4985639;28;20030;-63
2024/02/11 04:47:35;;;;;;;0.85;0.85;;;7.50;90.60;;;;;;4991237;28;20043;-64
2024/02/11 04:50:04;;;;;;;1.00;1.00;;;7.50;90.60;;;;;;4986435;28;20041;-65
2024/02/11 04:52:30;;;;;;;1.10;1.10;;;7.40;90.60;;;;;;4983437;28;20081;-65
2024/02/11 04:54:56;;;;;;;1.00;1.00;;;7.40;90.70;;;;;;4983770;28;20042;-65
2024/02/11 04:57:22;;;;;;;1.33;1.23;;;7.30;90.70;;;;;;4986654;28;20027;-64
2024/02/11 04:59:48;;;;;;;1.85;1.40;;;7.30;90.70;;;;;;4985079;28;20038;-64
2024/02/11 05:02:13;;;;;;;1.65;1.55;;;7.20;90.70;;;;;;4983406;28;20038;-65
2024/02/11 05:04:43;;;;;;;1.50;1.40;;;7.20;90.80;;;;;;4985633;28;20042;-65
2024/02/11 05:07:09;;;;;;;1.70;1.60;;;7.10;90.80;;;;;;4985654;28;20034;-64
2024/02/11 05:09:37;;;;;;;1.70;1.60;;;7.10;90.80;;;;;;4989271;28;20034;-64
2024/02/11 05:12:07;;;;;;;1.63;1.52;;;7.10;90.80;;;;;;4987762;28;20093;-64
2024/02/11 05:14:34;;;;;;;1.85;1.75;;;7.10;90.80;;;;;;4990141;28;20042;-64
2024/02/11 05:17:03;;;;;;;1.67;1.58;;;7.00;90.90;;;;;;4983939;28;20161;-64
2024/02/11 05:19:32;;;;;;;1.75;1.65;;;7.00;91.10;;;;;;4989405;28;20034;-64
2024/02/11 05:21:59;;;;;;;1.90;1.80;;;7.00;90.90;;;;;;4989040;28;20087;-64
2024/02/11 05:24:25;;;;;;;2.05;1.95;;;7.00;91.40;;;;;;4986696;28;20077;-65
2024/02/11 05:26:50;;;;;;;1.85;1.75;;;7.00;91.00;;;;;;4985708;28;20043;-64
2024/02/11 05:29:16;;;;;;;2.28;2.10;;;6.90;91.00;;;;;;4988376;28;20611;-65
2024/02/11 05:31:42;;;;;;;1.85;1.75;;;6.90;91.00;;;;;;4984604;28;20049;-64
2024/02/11 05:34:07;;;;;;;2.85;1.98;;;6.90;91.00;;;;;;4988736;28;20371;-64
2024/02/11 05:36:35;;;;;;;2.30;2.10;;;6.90;91.00;;;;;;4983315;28;20189;-64
2024/02/11 05:39:00;;;;;;;2.58;2.38;;;6.90;91.00;;;;;;4985528;28;20037;-64
2024/02/11 05:41:26;;;;;;;2.80;2.60;;;6.90;91.00;;;;;;4988527;28;20031;-64
2024/02/11 05:43:52;;;;;;;3.35;3.05;;;6.90;91.00;;;;;;4985294;28;20106;-63
2024/02/11 05:46:18;;;;;;;2.83;2.63;;;6.80;90.90;;;;;;4985924;28;20042;-64
2024/02/11 05:48:43;;;;;;;2.63;2.42;;;6.80;90.90;;;;;;4983406;28;20565;-64
2024/02/11 05:51:12;;;;;;;3.10;2.90;;;6.80;90.90;;;;;;4987565;28;20046;-64
2024/02/11 05:53:39;;;;;;;2.80;2.60;;;6.80;90.90;;;;;;4986845;28;20050;-64
2024/02/11 05:56:05;;;;;;;3.13;2.83;;;6.70;91.00;;;;;;4982681;28;20549;-65
2024/02/11 05:58:31;;;;;;;2.95;2.75;;;6.80;91.00;;;;;;4984243;28;20149;-64
2024/02/11 06:00:57;;;;;;;2.70;2.50;;;6.80;91.00;;;;;;4986599;28;20034;-64
2024/02/11 06:03:23;;;;;;;2.75;2.55;;;6.70;91.00;;;;;;4983122;28;20041;-63
2024/02/11 06:05:49;;;;;;;2.60;2.40;;;6.70;91.00;;;;;;4989407;28;20030;-63
2024/02/11 06:08:15;;;;;;;2.20;2.10;;;6.70;91.10;;;;;;4984816;28;20064;-63
2024/02/11 06:10:41;;;;;;;1.80;1.70;;;6.70;91.10;;;;;;4982092;28;20081;-64
2024/02/11 06:13:08;;;;;;;1.70;1.60;;;6.70;91.20;;;;;;4986496;28;20120;-64
2024/02/11 06:15:37;;;;;;;1.67;1.58;;;6.70;91.20;;;;;;4983191;28;20038;-64
2024/02/11 06:18:03;;;;;;;1.50;1.30;;;6.70;91.20;;;;;;4987861;28;20034;-64
2024/02/11 06:20:29;;;;;;;1.23;1.13;;;6.70;91.20;;;;;;4985255;28;20047;-64
2024/02/11 06:22:55;;;;;;;1.33;1.23;;;6.70;91.20;;;;;;4984222;28;20125;-64
2024/02/11 06:25:24;;;;;;;1.23;1.13;;;6.70;91.20;;;;;;4985830;28;20125;-64
2024/02/11 06:27:51;;;;;;;1.13;1.02;;;6.70;91.30;;;;;;4984666;28;20498;-64
2024/02/11 06:30:18;;;;;;;1.00;0.90;;;6.70;91.30;;;;;;4989754;28;20046;-64
2024/02/11 06:32:53;;;;;;;1.15;1.05;;;6.70;91.30;;;;;;4980392;28;20030;-63
2024/02/11 06:35:19;;;;;;;0.82;0.82;;;6.70;91.30;;;;;;4985916;28;20065;-64
2024/02/11 06:37:46;;;;;;;0.85;0.85;;;6.70;91.30;;;;;;4981794;28;20066;-62
2024/02/11 06:40:22;;;;;;;0.98;0.98;;;6.70;91.30;;;;;;4987124;28;20030;-64
2024/02/11 06:42:48;;;;;;;1.10;1.00;;;6.70;91.40;;;;;;4981541;28;20046;-63
2024/02/11 06:45:14;;;;;;;1.10;1.00;;;6.70;91.30;;;;;;4986321;28;20053;-64
2024/02/11 06:47:40;;;;;;;1.70;1.20;;;6.70;91.40;;;;;;4985334;28;20467;-61
2024/02/11 06:50:08;;;;;;;1.10;1.00;;;6.70;91.40;;;;;;4987499;28;20069;-62
2024/02/11 06:52:34;;;;;;;1.02;1.00;;;6.70;91.40;;;;;;4985777;28;20038;-63
2024/02/11 06:55:01;;;;;;;1.30;1.20;;;6.70;91.40;;;;;;4982498;28;20379;-62
2024/02/11 06:57:29;;;;;;;1.65;1.55;;;6.80;91.40;;;;;;4985868;28;20030;-62
2024/02/11 06:59:56;;;;;;;1.60;1.50;;;6.80;91.50;;;;;;4984467;28;20038;-63
2024/02/11 07:02:22;;;;;;;1.58;1.48;;;6.80;91.50;;;;;;4983095;28;20387;-64
2024/02/11 07:04:47;;;;;;;1.70;1.60;;;6.80;91.50;;;;;;4984365;28;20105;-62
2024/02/11 07:07:13;;;;;;;1.65;1.55;;;6.80;91.50;;;;;;4982015;28;20039;-63
2024/02/11 07:09:41;;;;;;;2.08;1.65;;;6.80;91.50;;;;;;4985736;28;20038;-62
2024/02/11 07:12:06;;;;;;;2.00;1.90;;;6.90;91.50;;;;;;4980841;28;20114;-65
2024/02/11 07:14:34;;;;;;;1.95;1.85;;;6.80;91.50;;;;;;4982745;28;20153;-63
2024/02/11 07:17:00;;;;;;;1.90;1.80;;;6.80;91.50;;;;;;4981672;28;22408;-63
2024/02/11 07:19:28;;;;;;;2.85;2.30;;;6.90;91.50;;;;;;4980972;28;20511;-63
2024/02/11 07:21:53;;;;;;;2.15;1.80;;;6.90;91.50;;;;;;4974253;28;20425;-62
2024/02/11 07:24:19;;;;;;;2.13;1.98;;;6.90;91.50;;;;;;4979302;28;20026;-61
2024/02/11 07:26:47;;;;;;;2.20;2.10;;;6.90;91.50;;;;;;4973384;28;20039;-64
2024/02/11 07:29:14;;;;;;;2.28;2.17;;;6.90;91.50;;;;;;4981941;28;20138;-65
2024/02/11 07:31:41;;;;;;;2.55;2.30;;;6.90;91.50;;;;;;4981502;28;20033;-64
2024/02/11 07:34:07;;;;;;;2.28;2.08;;;6.90;91.50;;;;;;4984908;28;20037;-63
2024/02/11 07:36:32;;;;;;;2.55;2.35;;;6.90;91.60;;;;;;4977620;28;20418;-63
2024/02/11 07:38:58;;;;;;;2.50;2.30;;;6.90;91.60;;;;;;4979906;28;20038;-64
2024/02/11 07:41:24;;;;;;;2.33;2.22;;;6.90;91.60;;;;;;4982533;28;20046;-63
2024/02/11 07:43:50;;;;;;;2.60;2.40;;;7.00;91.50;;;;;;4985124;28;20117;-64
2024/02/11 07:46:16;;;;;;;2.40;2.30;;;7.00;91.50;;;;;;4986615;28;20273;-63
2024/02/11 07:48:42;;;;;;;2.53;2.33;;;7.00;91.50;;;;;;4986051;28;20084;-63
2024/02/11 07:51:09;;;;;;;2.92;2.40;;;7.00;91.50;;;;;;4985634;28;20038;-64
2024/02/11 07:53:35;;;;;;;2.70;2.50;;;7.00;91.50;;;;;;4983217;28;20039;-64
2024/02/11 07:56:01;;;;;;;2.60;2.40;;;7.00;91.60;;;;;;4982034;28;20034;-64
2024/02/11 07:58:27;;;;;;;2.70;2.50;;;7.00;91.60;;;;;;4986202;28;20407;-62
2024/02/11 08:00:52;;;;;;;2.50;2.30;;;7.00;91.60;;;;;;4985637;28;20576;-63
2024/02/11 08:03:19;;;;;;;2.90;2.70;;;7.10;91.60;;;;;;4972398;28;22166;-64
2024/02/11 08:05:44;;;;;;;3.50;3.05;;;7.10;91.60;;;;;;4978638;28;20202;-63
2024/02/11 08:08:10;;;;;;;2.83;2.63;;;7.10;91.50;;;;;;4984512;28;20142;-63
2024/02/11 08:10:36;;;;;;;2.90;2.65;;;7.10;91.60;;;;;;4986368;28;20045;-63
2024/02/11 08:13:02;;;;;;;3.67;2.92;;;7.10;91.60;;;;;;4985516;28;20034;-61
2024/02/11 08:15:27;;;;;;;3.50;3.20;;;7.20;91.60;;;;;;4985284;28;20509;-61
2024/02/11 08:17:53;;;;;;;4.07;3.53;;;7.20;91.60;;;;;;4985924;28;20038;-61
2024/02/11 08:20:19;;;;;;;3.15;2.92;;;7.20;91.70;;;;;;4976722;28;20035;-64
2024/02/11 08:22:48;;;;;;;3.80;3.42;;;7.20;91.70;;;;;;4977603;28;20034;-63
2024/02/11 08:25:14;;;;;;;3.65;3.10;;;7.20;91.70;;;;;;4973771;28;20842;-62
2024/02/11 08:27:40;;;;;;;3.75;3.00;;;7.30;91.70;;;;;;4981248;28;20050;-64
2024/02/11 08:30:09;;;;;;;4.25;3.08;;;7.30;91.70;;;;;;4982336;28;20501;-60
2024/02/11 08:32:38;;;;;;;4.95;3.50;;;7.30;91.70;;;;;;4978795;28;20031;-63
2024/02/11 08:35:08;;;;;;;4.60;3.45;;;7.30;91.70;;;;;;4986161;28;20038;-63
2024/02/11 08:37:34;;;;;;;4.35;3.72;;;7.40;91.80;;;;;;4982712;28;20051;-63
2024/02/11 08:40:00;;;;;;;6.40;4.22;;;7.40;91.80;;;;;;4973299;28;20058;-64
2024/02/11 08:42:27;;;;;;;4.40;3.78;;;7.40;91.80;;;;;;4977006;28;20126;-63
2024/02/11 08:44:54;;;;;;;5.00;4.25;;;7.40;91.80;;;;;;4981011;28;20067;-63
2024/02/11 08:47:20;;;;;;;5.40;4.35;;;7.50;91.80;;;;;;4984808;28;20034;-64
2024/02/11 08:49:47;;;;;;;5.50;4.30;;;7.50;91.70;;;;;;4978171;28;20477;-62
2024/02/11 08:52:13;;;;;;;5.88;4.20;;;7.50;91.70;;;;;;4987093;28;20081;-62
2024/02/11 08:54:39;;;;;;;7.05;4.45;;;7.50;92.10;;;;;;4982693;28;20474;-63
2024/02/11 08:57:05;;;;;;;6.10;3.90;;;7.60;91.70;;;;;;4986513;28;20042;-63
2024/02/11 08:59:30;;;;;;;6.05;4.65;;;7.60;91.70;;;;;;4979036;28;20030;-63
2024/02/11 09:01:57;;;;;;;6.43;4.28;;;7.60;91.70;;;;;;4985335;28;20229;-61
2024/02/11 09:04:23;;;;;;;9.80;4.28;;;7.60;91.70;;;;;;4981337;28;20401;-63
2024/02/11 09:06:55;;;;;;;5.70;4.13;;;7.70;91.80;;;;;;4981365;28;20570;-63
2024/02/11 09:09:27;;;;;;;7.97;4.43;;;7.70;91.80;;;;;;4982371;28;20085;-62
2024/02/11 09:11:57;;;;;;;6.25;3.90;;;7.70;91.80;;;;;;4983432;28;20061;-61
2024/02/11 09:14:27;;;;;;;4.43;3.80;;;7.80;92.20;;;;;;4983431;28;20393;-63
2024/02/11 09:16:54;;;;;;;5.20;4.10;;;7.90;91.80;;;;;;4981474;28;20030;-62
2024/02/11 09:19:21;;;;;;;8.80;4.25;;;7.90;91.70;;;;;;4981508;28;20058;-63
2024/02/11 09:21:47;;;;;;;5.85;3.70;;;7.90;91.60;;;;;;4983458;28;20123;-63
2024/02/11 09:24:12;;;;;;;5.93;3.95;;;7.90;91.50;;;;;;4976988;28;23335;-63
2024/02/11 09:26:38;;;;;;;5.78;3.80;;;8.00;91.60;;;;;;4981035;28;20027;-63
2024/02/11 09:29:05;;;;;;;5.43;3.80;;;8.00;91.50;;;;;;4983247;28;20463;-61
2024/02/11 09:31:31;;;;;;;5.85;3.60;;;8.00;91.50;;;;;;4983516;28;20034;-62
2024/02/11 09:33:58;;;;;;;6.97;3.70;;;8.10;91.50;;;;;;4989500;28;20037;-62
2024/02/11 09:36:24;;;;;;;4.30;3.65;;;8.10;91.50;;;;;;4990582;28;20081;-63
2024/02/11 09:38:49;;;;;;;6.18;3.72;;;8.20;91.50;;;;;;4973660;28;20449;-63
2024/02/11 09:41:15;;;;;;;3.92;3.53;;;8.20;91.50;;;;;;4984383;28;20042;-62
2024/02/11 09:43:43;;;;;;;4.95;3.50;;;8.20;91.40;;;;;;4987780;28;20154;-63
2024/02/11 09:46:10;;;;;;;5.57;3.70;;;8.20;91.20;;;;;;4980411;28;21707;-62
2024/02/11 09:48:37;;;;;;;4.25;3.20;;;8.30;91.20;;;;;;4974909;28;20042;-64
2024/02/11 09:51:07;;;;;;;4.82;3.25;;;8.30;91.20;;;;;;4986531;28;20042;-63
2024/02/11 09:53:35;;;;;;;5.30;3.50;;;8.30;91.10;;;;;;4991300;28;20046;-63
2024/02/11 09:56:01;;;;;;;3.88;3.38;;;8.40;91.00;;;;;;4989294;28;20548;-62
2024/02/11 09:58:26;;;;;;;3.60;3.30;;;8.40;91.00;;;;;;4979974;28;20034;-62
2024/02/11 10:00:54;;;;;;;3.42;3.13;;;8.40;90.90;;;;;;4986468;28;20461;-64
2024/02/11 10:03:22;;;;;;;5.03;3.50;;;8.40;91.00;;;;;;4983857;28;20030;-61
2024/02/11 10:05:50;;;;;;;4.43;2.95;;;8.40;91.00;;;;;;4981281;28;20113;-62
2024/02/11 10:08:16;;;;;;;3.88;3.00;;;8.40;91.00;;;;;;4988377;28;20033;-62
2024/02/11 10:10:43;;;;;;;4.68;3.00;;;8.60;91.00;;;;;;4987660;28;20050;-62
2024/02/11 10:13:19;;;;;;;5.43;3.20;;;8.60;90.80;;;;;;4981355;28;20395;-62
2024/02/11 10:15:48;;;;;;;4.80;3.20;;;8.60;90.80;;;;;;4980187;28;20038;-63
2024/02/11 10:18:17;;;;;;;3.35;2.70;;;8.60;90.80;;;;;;4988213;28;20042;-63
2024/02/11 10:20:47;;;;;;;4.28;3.00;;;8.60;90.70;;;;;;4990074;28;20034;-63
2024/02/11 10:23:14;;;;;;;5.05;3.30;;;8.70;90.70;;;;;;4989011;28;20037;-63
2024/02/11 10:25:44;;;;;;;4.60;3.15;;;8.70;90.70;;;;;;4989567;28;20227;-62
2024/02/11 10:28:09;;;;;;;3.95;3.20;;;8.70;90.60;;;;;;4993384;28;20546;-63
2024/02/11 10:30:35;;;;;;;4.07;3.00;;;8.70;90.60;;;;;;4988724;28;20045;-62
2024/02/11 10:33:01;;;;;;;4.18;2.88;;;8.70;90.60;;;;;;4987393;28;20135;-62
2024/02/11 10:35:32;;;;;;;5.63;3.30;;;8.80;90.70;;;;;;4987092;28;20030;-63
2024/02/11 10:37:59;;;;;;;4.00;3.30;;;8.80;90.70;;;;;;4985791;28;20035;-63
2024/02/11 10:40:25;;;;;;;3.13;2.83;;;8.90;90.80;;;;;;4984564;28;20043;-63
2024/02/11 10:42:52;;;;;;;3.25;2.90;;;8.90;90.70;;;;;;4987760;28;20038;-63
2024/02/11 10:45:17;;;;;;;3.95;3.00;;;8.90;90.40;;;;;;4992355;28;20383;-63
2024/02/11 10:47:43;;;;;;;3.40;2.83;;;9.00;90.50;;;;;;4981377;28;20049;-64
2024/02/11 10:50:10;;;;;;;3.45;2.83;;;9.00;90.40;;;;;;4986416;28;20041;-61
2024/02/11 10:52:43;;;;;;;6.25;3.78;;;9.10;90.40;;;;;;4985003;28;20038;-63
2024/02/11 10:55:11;;;;;;;4.07;2.83;;;9.10;90.20;;;;;;4988901;28;20121;-64
2024/02/11 10:57:48;;;;;;;3.28;2.63;;;9.20;90.20;;;;;;4987467;28;20443;-63
2024/02/11 11:00:20;;;;;;;3.63;3.10;;;9.20;90.00;;;;;;4988471;28;20042;-64
2024/02/11 11:02:49;;;;;;;2.83;2.58;;;9.30;90.00;;;;;;4987619;28;20042;-62
2024/02/11 11:05:17;;;;;;;3.20;2.58;;;9.30;90.10;;;;;;4990841;28;20457;-63
2024/02/11 11:07:48;;;;;;;3.13;2.50;;;9.40;89.80;;;;;;4990639;28;20029;-63
2024/02/11 11:10:14;;;;;;;3.75;2.70;;;9.40;89.30;;;;;;4989588;28;20038;-64
2024/02/11 11:12:53;;;;;;;3.58;2.65;;;9.40;89.20;;;;;;4986631;28;20046;-63
2024/02/11 11:15:22;;;;;;;3.85;2.50;;;9.40;89.60;;;;;;4986255;28;20022;-63
2024/02/11 11:17:48;;;;;;;2.72;2.53;;;9.50;88.90;;;;;;4989695;28;20058;-63
2024/02/11 11:20:14;;;;;;;4.60;2.97;;;9.40;88.80;;;;;;4987863;28;20668;-63
2024/02/11 11:22:42;;;;;;;3.33;2.72;;;9.50;88.60;;;;;;4988639;28;20042;-65
2024/02/11 11:25:11;;;;;;;4.90;4.07;;;9.50;88.60;;;;;;4985121;28;20406;-63
2024/02/11 11:27:37;;;;;;;7.30;3.70;;;9.40;88.40;;;;;;4988432;28;20038;-63
2024/02/11 11:30:06;;;;;;;3.15;2.83;;;9.50;88.30;;;;;;4988305;28;20536;-62
2024/02/11 11:32:33;;;;;;;2.70;2.42;;;9.50;88.30;;;;;;4987721;28;20030;-62
2024/02/11 11:34:59;;;;;;;3.10;2.78;;;9.50;88.30;;;;;;4988856;28;20896;-64
2024/02/11 11:37:25;;;;;;;2.65;2.38;;;9.50;89.00;;;;;;4986162;28;20030;-63
2024/02/11 11:39:54;;;;;;;3.15;2.28;;;9.50;88.10;;;;;;4978354;28;20054;-64
2024/02/11 11:42:21;;;;;;;3.22;2.60;;;9.50;88.50;;;;;;4987924;28;20406;-63
2024/02/11 11:44:47;;;;;;;2.55;2.35;;;9.50;88.60;;;;;;4982437;28;20035;-63
2024/02/11 11:47:13;;;;;;;2.53;2.33;;;9.50;88.30;;;;;;4985294;28;20039;-64
2024/02/11 11:49:39;;;;;;;2.83;2.33;;;9.50;88.20;;;;;;4984462;28;20078;-64
2024/02/11 11:52:08;;;;;;;2.40;2.17;;;9.50;87.80;;;;;;4989871;28;20049;-62
2024/02/11 11:54:34;;;;;;;2.92;2.42;;;9.60;87.80;;;;;;4987150;28;20042;-63
2024/02/11 11:57:01;;;;;;;3.53;2.15;;;9.50;87.60;;;;;;4987127;28;20410;-64
2024/02/11 11:59:27;;;;;;;2.65;2.40;;;9.60;87.90;;;;;;4980535;28;20565;-63
2024/02/11 12:01:55;;;;;;;4.72;2.40;;;9.60;87.80;;;;;;4985215;28;20486;-62
2024/02/11 12:04:22;;;;;;;2.33;2.00;;;9.60;87.70;;;;;;4982152;28;20041;-63
2024/02/11 12:06:47;;;;;;;5.45;2.10;;;9.60;87.80;;;;;;4985698;28;20038;-64
2024/02/11 12:09:16;;;;;;;2.17;1.98;;;9.70;87.40;;;;;;4988197;28;20034;-63
2024/02/11 12:11:44;;;;;;;2.40;2.20;;;9.70;87.60;;;;;;4980072;28;20043;-63
2024/02/11 12:14:11;;;;;;;3.30;2.20;;;9.70;87.80;;;;;;4986853;28;20040;-63
2024/02/11 12:16:37;;;;;;;2.28;1.75;;;9.80;87.90;;;;;;4983827;28;20037;-63
2024/02/11 12:19:04;;;;;;;1.88;1.70;;;9.90;87.80;;;;;;4987226;28;20042;-63
2024/02/11 12:21:31;;;;;;;2.20;1.50;;;9.90;87.20;;;;;;4986913;28;20074;-62
2024/02/11 12:24:00;;;;;;;2.22;1.75;;;9.90;87.10;;;;;;4980691;28;20061;-64
2024/02/11 12:26:26;;;;;;;1.92;1.80;;;10.00;86.00;;;;;;4986667;28;20076;-63
2024/02/11 12:28:52;;;;;;;2.63;1.80;;;9.90;86.00;;;;;;4980688;28;20046;-62
2024/02/11 12:31:20;;;;;;;3.05;1.70;;;10.00;86.40;;;;;;4984561;28;20092;-63
2024/02/11 12:33:48;;;;;;;1.90;1.40;;;10.00;86.40;;;;;;4987075;28;20537;-61
2024/02/11 12:36:27;;;;;;;2.08;1.70;;;10.00;86.40;;;;;;4984824;28;20043;-61
2024/02/11 12:38:54;;;;;;;2.42;2.00;;;10.10;85.90;;;;;;4986323;28;20418;-63
2024/02/11 12:41:24;;;;;;;1.80;1.70;;;10.10;86.40;;;;;;4983218;28;20121;-62
2024/02/11 12:43:54;;;;;;;2.70;1.77;;;10.10;86.20;;;;;;4991293;28;20042;-63
2024/02/11 12:46:20;;;;;;;2.08;1.88;;;10.10;86.90;;;;;;4980068;28;20499;-61
2024/02/11 12:48:47;;;;;;;2.65;2.33;;;10.10;85.70;;;;;;4981846;28;20069;-63